Terminal Aerodrome Forecast
Issued by NWS

Home | Current Version | Previous Version | Text Only | Print | Product List | Glossary On
Versions: 1 2 3 4 5 6 7 8 9 10 11 12 13 14 15 16
000
FTUS46 KMTR 280500
TAFOAK
TAF
KOAK 280530Z 2806/2912 30009KT P6SM FEW007
     FM280900 30005KT P6SM BKN015
     FM281800 29008KT P6SM FEW015
     FM282100 30014KT P6SM SKC
     FM290500 29008KT P6SM SKC
     FM290700 24006KT P6SM SCT005 OVC007=

USA.gov is the U.S. government's official web portal to all federal, state and local government web resources and services.